x

Cape Elizabeth- 45nm Nw Of Aberdeen, Wa (46041) Wave Buoy

5:50pm - Fri 24th Apr 2015 All times are PDT. -7 hours from GMT.

  • Sig Wave height 9.8ft
  • Swell Direction
  • Peak Period 13s
  • Average Period 8s
  • Wind
    9mph, 11mph gusts
  • Sea Temp 51°f
  • 空気 Temp 50°f
  • Sea Pressure 1010.8mb
  • Cape Elizabeth- 45nm Nw Of Aberdeen, Wa
  • Cape Elizabeth- 45nm Nw Of Aberdeen, Wa

More Historic Weather Station data

Upgrade to MSW Pro to gain access to the past 30 days of data for over 8000 Wavebouys and Weather Stations around the globe.

Join Pro

Comparision Forecast

View Surf forecast
   
Fri 04/24 5:50pm 10ft 13s 8s 9 11 mph 1010.8mb 51f 50f
4:50pm 11ft 13s 8s 11 13 mph 1010.6mb 51f 50f
3:50pm 11.5ft 13s 9s 11 16 mph 1010.5mb 50f 50f
2:50pm 10.5ft 14s 8s 11 13 mph 1010.3mb 50f 50f
1:50pm 11ft 14s 8s 11 16 mph 1009.8mb 50f 50f
12:50pm 11.5ft 14s 9s 13 16 mph 1009.4mb 50f 50f
11:50am 12ft 14s 9s 16 20 mph 1009.5mb 50f 50f
10:50am 12ft 11s 9s 13 18 mph 1009mb 49f 49f
9:50am 11ft 11s 8s 13 18 mph 1008.4mb 49f 49f
8:50am 12.5ft 14s 9s 16 20 mph 1007.8mb 50f 49f
7:50am 13ft 14s 9s 18 22 mph 1007.3mb 50f 49f
6:50am 13ft 12s 9s 13 18 mph 1006.8mb 50f 49f
5:50am 14ft 11s 9s 16 20 mph 1006.4mb 50f 48f
4:50am 13ft 16s 9s 18 22 mph 1006mb 50f 49f
3:50am 11ft 11s 8s 16 20 mph 1006.2mb 50f 49f
2:50am 10.5ft 10s 7s 13 18 mph 1006.4mb 50f 47f
1:50am 10.5ft 11s 7s 20 25 mph 1006.8mb 50f 46f
12:50am 11ft 10s 7s 18 25 mph 1006.8mb 49f 49f
Thu 04/23 11:50pm 10ft 11s 7s 18 22 mph 1007.1mb 50f 46f
10:50pm 9.5ft 11s 7s 20 25 mph 1007.2mb 50f 49f
9:50pm 9.5ft 10s 7s 18 22 mph 1007.7mb 50f 49f
8:50pm 8.5ft 10s 7s 11 16 mph 1007.9mb 50f 49f
7:50pm 9ft 11s 8s 13 16 mph 1008.1mb 50f 49f
6:50pm 8ft 10s 7s 16 20 mph 1008.5mb 50f 47f
5:50pm 8.5ft 11s 7s 9 11 mph 1009mb 51f 48f
4:50pm 8ft 8s 7s 4 7 mph 1009.1mb 51f 48f
3:50pm 7ft 9s 7s 11 13 mph 1009.4mb 51f 49f
2:50pm 7ft 7s 6s 13 16 mph 1009.5mb 50f 49f
1:50pm 7.5ft 7s 6s 11 16 mph 1009.4mb 50f 51f
12:50pm 7.5ft 6s 6s 13 16 mph 1009.3mb 50f 50f
11:50am 8ft 7s 6s 4
mph
1009.8mb 49f 48f
10:50am 8ft 6s 6s 13 22 mph 1009.5mb 49f 48f
9:50am 6.5ft 5s 5s 27 34 mph 1009.6mb 49f 47f
8:50am 6ft 11s 5s 27 34 mph 1010.2mb 49f 47f
7:50am 5.5ft 11s 6s 22 27 mph 1011.4mb 49f 47f
6:50am 5.5ft 10s 6s 18 20 mph 1012.1mb 49f 49f
5:50am 5.5ft 11s 7s 18 20 mph 1012.9mb 49f 48f
4:50am 5.5ft 11s 7s 16 18 mph 1013.9mb 49f 48f
3:50am 6ft 11s 7s 13 16 mph 1014.8mb 49f 48f
2:50am 6.5ft 11s 8s 9 11 mph 1015.7mb 49f 48f
1:50am 5.5ft 11s 7s 16 18 mph 1016.6mb 49f 47f
12:50am 6.5ft 11s 8s 4 7 mph 1017.6mb 49f 48f
Wed 04/22 11:50pm 7ft 11s 8s 2 4 mph 1018.3mb 49f 48f
10:50pm 7ft 11s 8s 4 9 mph 1019mb 49f 48f
9:50pm 6.5ft 11s 7s 4 7 mph 1019.4mb 49f 48f
8:50pm 6.5ft 11s 7s 7 9 mph 1019.6mb 49f 48f
7:50pm 6.5ft 8s 7s 9 11 mph 1020.1mb 49f 49f
6:50pm 7ft 9s 7s 9 11 mph 1020.7mb 49f 49f
5:50pm 8ft 12s 8s 9 11 mph 1021.4mb 50f 49f
4:50pm 7.5ft 9s 7s 11 13 mph 1022.2mb 50f 49f
3:50pm 8.5ft 12s 8s 13 16 mph 1022.5mb 50f 49f
2:50pm 8ft 11s 7s 11 13 mph 1022.9mb 50f 49f
1:50pm 9ft 13s 8s 11 13 mph 1023.3mb 50f 49f
12:50pm 10.5ft 11s 8s 13 16 mph 1023.4mb 49f 49f
11:50am 9ft 9s 7s 13 16 mph 1023.6mb 49f 49f
10:50am 10ft 12s 7s 13 18 mph 1023.9mb 49f 49f
9:50am 10ft 9s 7s 16 18 mph 1023.5mb 49f 49f
8:50am 11ft 10s 8s 16 20 mph 1023.4mb 49f 49f
7:50am 12ft 9s 8s 16 20 mph 1023.1mb 49f 49f
6:50am 11.5ft 9s 7s 22 27 mph 1022.8mb 49f 48f
5:50am 12.5ft 9s 8s 18 25 mph 1022.2mb 49f 49f
4:50am 13ft 9s 7s 20 27 mph 1022.1mb 49f 49f
3:50am 13ft 9s 7s 20 27 mph 1021.7mb 49f 49f
2:50am 12ft 9s 7s 22 27 mph 1021.4mb 49f 49f
1:50am 11.5ft 13s 7s 22 27 mph 1021.3mb 49f 49f
12:50am 12ft 9s 7s 22 29 mph 1021.5mb 49f 49f
Tue 04/21 11:50pm 12ft 10s 7s 22 27 mph 1021.2mb 49f 49f
10:50pm 10ft 8s 7s 22 27 mph 1021.1mb 49f 49f
9:50pm 10.5ft 12s 7s 22 27 mph 1021.1mb 49f 49f
8:50pm 11ft 8s 7s 22 29 mph 1020.7mb 49f 49f
7:50pm 11ft 13s 7s 22 27 mph 1020.2mb 49f 50f
6:50pm 11.5ft 13s 7s 22 29 mph 1019.8mb 50f 50f
5:50pm 11ft 13s 7s 22 29 mph 1019.7mb 50f 50f
4:50pm 11.5ft 13s 7s 22 25 mph 1019.6mb 50f 50f
3:50pm 11.5ft 13s 7s 20 25 mph 1019.4mb 50f 50f
2:50pm 10ft 13s 7s 22 27 mph 1019mb 50f 50f
1:50pm 9ft 12s 7s 22 29 mph 1018.7mb 50f 50f
12:50pm 9.5ft 14s 7s 22 27 mph 1018.2mb 50f 50f
11:50am 9ft 13s 7s 20 25 mph 1017.6mb 50f 50f
10:50am 8.5ft 13s 7s 20 25 mph 1017.1mb 50f 51f
9:50am 8.5ft 14s 7s 20 25 mph 1016.5mb 50f 51f
8:50am 7.5ft 15s 7s 20 22 mph 1015.8mb 50f 51f
7:50am 7ft 12s 7s 20 27 mph 1015.1mb 50f 50f
6:50am 7ft 13s 7s 16 18 mph 1014.5mb 50f 52f
5:50am 6.5ft 12s 7s 13 18 mph 1013.9mb 50f 51f
4:50am 8ft 12s 8s 11 13 mph 1013.6mb 51f 51f
3:50am 7ft 12s 7s 11 13 mph 1013.4mb 50f 51f
2:50am 7ft 12s 7s 13 16 mph 1013.2mb 50f 51f
1:50am 6ft 11s 7s 13 18 mph 1013.2mb 50f 51f